sensor_id;sensor_type;location;lat;lon;timestamp;P1;durP1;ratioP1;P2;durP2;ratioP2
19347;SDS011;9810;52.480;9.806;2023-01-25T00:02:09;19.50;;;10.33;;
19347;SDS011;9810;52.480;9.806;2023-01-25T00:04:36;19.23;;;11.03;;
19347;SDS011;9810;52.480;9.806;2023-01-25T00:07:05;22.57;;;12.70;;
19347;SDS011;9810;52.480;9.806;2023-01-25T00:09:34;19.57;;;10.97;;
19347;SDS011;9810;52.480;9.806;2023-01-25T00:12:02;21.80;;;11.20;;
19347;SDS011;9810;52.480;9.806;2023-01-25T00:14:30;21.10;;;10.83;;
19347;SDS011;9810;52.480;9.806;2023-01-25T00:16:57;19.47;;;9.63;;
19347;SDS011;9810;52.480;9.806;2023-01-25T00:19:24;20.70;;;10.43;;
19347;SDS011;9810;52.480;9.806;2023-01-25T00:21:51;19.47;;;10.47;;
19347;SDS011;9810;52.480;9.806;2023-01-25T00:24:19;21.97;;;11.03;;
19347;SDS011;9810;52.480;9.806;2023-01-25T00:26:48;20.17;;;11.40;;
19347;SDS011;9810;52.480;9.806;2023-01-25T00:29:16;20.53;;;10.70;;
19347;SDS011;9810;52.480;9.806;2023-01-25T00:31:45;20.63;;;11.53;;
19347;SDS011;9810;52.480;9.806;2023-01-25T00:34:33;20.33;;;10.93;;
19347;SDS011;9810;52.480;9.806;2023-01-25T00:37:12;19.87;;;11.43;;
19347;SDS011;9810;52.480;9.806;2023-01-25T00:39:45;19.63;;;10.30;;
19347;SDS011;9810;52.480;9.806;2023-01-25T00:42:14;22.20;;;12.27;;
19347;SDS011;9810;52.480;9.806;2023-01-25T00:44:43;21.97;;;12.20;;
19347;SDS011;9810;52.480;9.806;2023-01-25T00:47:12;20.57;;;11.30;;
19347;SDS011;9810;52.480;9.806;2023-01-25T00:49:40;24.13;;;13.30;;
19347;SDS011;9810;52.480;9.806;2023-01-25T00:52:10;21.43;;;11.90;;
19347;SDS011;9810;52.480;9.806;2023-01-25T00:54:38;20.10;;;11.60;;
19347;SDS011;9810;52.480;9.806;2023-01-25T00:57:06;22.67;;;13.60;;
19347;SDS011;9810;52.480;9.806;2023-01-25T00:59:36;21.10;;;12.30;;
19347;SDS011;9810;52.480;9.806;2023-01-25T01:02:08;24.77;;;12.30;;
19347;SDS011;9810;52.480;9.806;2023-01-25T01:04:35;20.13;;;11.67;;
19347;SDS011;9810;52.480;9.806;2023-01-25T01:07:03;20.47;;;11.47;;
19347;SDS011;9810;52.480;9.806;2023-01-25T01:09:30;22.40;;;12.00;;
19347;SDS011;9810;52.480;9.806;2023-01-25T01:12:00;20.17;;;8.63;;
19347;SDS011;9810;52.480;9.806;2023-01-25T01:14:27;19.93;;;11.07;;
19347;SDS011;9810;52.480;9.806;2023-01-25T01:16:56;24.03;;;12.73;;
19347;SDS011;9810;52.480;9.806;2023-01-25T01:19:23;21.07;;;11.30;;
19347;SDS011;9810;52.480;9.806;2023-01-25T01:21:53;22.37;;;12.10;;
19347;SDS011;9810;52.480;9.806;2023-01-25T01:24:20;25.77;;;12.90;;
19347;SDS011;9810;52.480;9.806;2023-01-25T01:26:48;20.03;;;11.67;;
19347;SDS011;9810;52.480;9.806;2023-01-25T01:29:15;28.03;;;13.07;;
19347;SDS011;9810;52.480;9.806;2023-01-25T01:31:42;20.67;;;11.00;;
19347;SDS011;9810;52.480;9.806;2023-01-25T01:34:17;28.10;;;13.30;;
19347;SDS011;9810;52.480;9.806;2023-01-25T01:36:44;19.73;;;11.00;;
19347;SDS011;9810;52.480;9.806;2023-01-25T01:39:11;23.37;;;11.57;;
19347;SDS011;9810;52.480;9.806;2023-01-25T01:41:39;21.07;;;11.27;;
19347;SDS011;9810;52.480;9.806;2023-01-25T01:44:08;22.43;;;11.87;;
19347;SDS011;9810;52.480;9.806;2023-01-25T01:46:41;17.80;;;10.33;;
19347;SDS011;9810;52.480;9.806;2023-01-25T01:49:12;20.17;;;11.10;;
19347;SDS011;9810;52.480;9.806;2023-01-25T01:51:48;20.20;;;11.00;;
19347;SDS011;9810;52.480;9.806;2023-01-25T01:54:19;19.77;;;11.37;;
19347;SDS011;9810;52.480;9.806;2023-01-25T01:56:51;25.00;;;12.50;;
19347;SDS011;9810;52.480;9.806;2023-01-25T01:59:21;18.40;;;10.27;;
19347;SDS011;9810;52.480;9.806;2023-01-25T02:01:53;18.77;;;9.97;;
19347;SDS011;9810;52.480;9.806;2023-01-25T02:04:20;19.80;;;11.23;;
19347;SDS011;9810;52.480;9.806;2023-01-25T02:06:53;23.37;;;10.93;;
19347;SDS011;9810;52.480;9.806;2023-01-25T02:09:26;20.47;;;11.17;;
19347;SDS011;9810;52.480;9.806;2023-01-25T02:11:57;19.90;;;12.17;;
19347;SDS011;9810;52.480;9.806;2023-01-25T02:14:26;23.10;;;12.23;;
19347;SDS011;9810;52.480;9.806;2023-01-25T02:16:54;21.73;;;11.90;;
19347;SDS011;9810;52.480;9.806;2023-01-25T02:19:26;21.07;;;10.20;;
19347;SDS011;9810;52.480;9.806;2023-01-25T02:22:01;23.60;;;12.90;;
19347;SDS011;9810;52.480;9.806;2023-01-25T02:24:34;8.37;;;5.13;;
19347;SDS011;9810;52.480;9.806;2023-01-25T02:27:06;20.50;;;10.70;;
19347;SDS011;9810;52.480;9.806;2023-01-25T02:29:33;24.07;;;11.20;;
19347;SDS011;9810;52.480;9.806;2023-01-25T02:32:02;23.00;;;12.53;;
19347;SDS011;9810;52.480;9.806;2023-01-25T02:34:30;22.23;;;11.70;;
19347;SDS011;9810;52.480;9.806;2023-01-25T02:36:59;24.57;;;12.87;;
19347;SDS011;9810;52.480;9.806;2023-01-25T02:39:27;24.13;;;13.03;;
19347;SDS011;9810;52.480;9.806;2023-01-25T02:41:58;25.10;;;12.63;;
19347;SDS011;9810;52.480;9.806;2023-01-25T02:44:27;23.77;;;12.33;;
19347;SDS011;9810;52.480;9.806;2023-01-25T02:46:57;22.97;;;11.83;;
19347;SDS011;9810;52.480;9.806;2023-01-25T02:49:25;18.20;;;8.07;;
19347;SDS011;9810;52.480;9.806;2023-01-25T02:51:53;25.23;;;11.47;;
19347;SDS011;9810;52.480;9.806;2023-01-25T02:54:21;23.63;;;11.23;;
19347;SDS011;9810;52.480;9.806;2023-01-25T02:56:50;25.37;;;13.10;;
19347;SDS011;9810;52.480;9.806;2023-01-25T02:59:17;23.30;;;11.23;;
19347;SDS011;9810;52.480;9.806;2023-01-25T03:01:46;25.20;;;12.27;;
19347;SDS011;9810;52.480;9.806;2023-01-25T03:04:13;20.90;;;10.33;;
19347;SDS011;9810;52.480;9.806;2023-01-25T03:06:41;29.20;;;14.20;;
19347;SDS011;9810;52.480;9.806;2023-01-25T03:09:09;28.80;;;13.17;;
19347;SDS011;9810;52.480;9.806;2023-01-25T03:11:37;31.87;;;15.53;;
19347;SDS011;9810;52.480;9.806;2023-01-25T03:14:15;28.90;;;14.30;;
19347;SDS011;9810;52.480;9.806;2023-01-25T03:16:42;22.77;;;10.00;;
19347;SDS011;9810;52.480;9.806;2023-01-25T03:19:11;28.33;;;13.73;;
19347;SDS011;9810;52.480;9.806;2023-01-25T03:21:39;25.37;;;13.80;;
19347;SDS011;9810;52.480;9.806;2023-01-25T03:24:07;24.90;;;12.50;;
19347;SDS011;9810;52.480;9.806;2023-01-25T03:26:36;26.00;;;12.60;;
19347;SDS011;9810;52.480;9.806;2023-01-25T03:29:16;25.53;;;13.40;;
19347;SDS011;9810;52.480;9.806;2023-01-25T03:31:44;27.37;;;13.03;;
19347;SDS011;9810;52.480;9.806;2023-01-25T03:34:13;27.70;;;13.20;;
19347;SDS011;9810;52.480;9.806;2023-01-25T03:36:40;27.47;;;13.93;;
19347;SDS011;9810;52.480;9.806;2023-01-25T03:39:08;25.93;;;12.87;;
19347;SDS011;9810;52.480;9.806;2023-01-25T03:41:35;27.50;;;12.50;;
19347;SDS011;9810;52.480;9.806;2023-01-25T03:44:02;36.93;;;15.97;;
19347;SDS011;9810;52.480;9.806;2023-01-25T03:46:30;28.40;;;13.50;;
19347;SDS011;9810;52.480;9.806;2023-01-25T03:48:57;32.97;;;16.03;;
19347;SDS011;9810;52.480;9.806;2023-01-25T03:51:26;29.70;;;13.17;;
19347;SDS011;9810;52.480;9.806;2023-01-25T03:53:53;28.30;;;13.60;;
19347;SDS011;9810;52.480;9.806;2023-01-25T03:56:21;34.27;;;13.37;;
19347;SDS011;9810;52.480;9.806;2023-01-25T03:58:48;27.37;;;11.87;;
19347;SDS011;9810;52.480;9.806;2023-01-25T04:01:15;23.33;;;10.80;;
19347;SDS011;9810;52.480;9.806;2023-01-25T04:03:43;22.73;;;12.33;;
19347;SDS011;9810;52.480;9.806;2023-01-25T04:06:10;27.97;;;11.60;;
19347;SDS011;9810;52.480;9.806;2023-01-25T04:08:39;19.53;;;10.50;;
19347;SDS011;9810;52.480;9.806;2023-01-25T04:11:07;18.20;;;9.80;;
19347;SDS011;9810;52.480;9.806;2023-01-25T04:13:35;18.17;;;10.07;;
19347;SDS011;9810;52.480;9.806;2023-01-25T04:16:05;21.50;;;10.37;;
19347;SDS011;9810;52.480;9.806;2023-01-25T04:18:35;18.60;;;8.57;;
19347;SDS011;9810;52.480;9.806;2023-01-25T04:21:03;19.80;;;9.67;;
19347;SDS011;9810;52.480;9.806;2023-01-25T04:23:30;18.53;;;8.23;;
19347;SDS011;9810;52.480;9.806;2023-01-25T04:26:00;18.67;;;10.47;;
19347;SDS011;9810;52.480;9.806;2023-01-25T04:28:36;20.07;;;9.30;;
19347;SDS011;9810;52.480;9.806;2023-01-25T04:31:04;18.40;;;8.93;;
19347;SDS011;9810;52.480;9.806;2023-01-25T04:43:44;19.48;;;10.32;;
19347;SDS011;9810;52.480;9.806;2023-01-25T04:46:11;16.43;;;8.50;;
19347;SDS011;9810;52.480;9.806;2023-01-25T04:48:38;21.27;;;9.20;;
19347;SDS011;9810;52.480;9.806;2023-01-25T04:51:05;19.90;;;9.87;;
19347;SDS011;9810;52.480;9.806;2023-01-25T04:53:33;16.13;;;8.50;;
19347;SDS011;9810;52.480;9.806;2023-01-25T04:56:00;14.80;;;7.73;;
19347;SDS011;9810;52.480;9.806;2023-01-25T04:58:28;15.70;;;7.77;;
19347;SDS011;9810;52.480;9.806;2023-01-25T05:01:00;15.77;;;7.83;;
19347;SDS011;9810;52.480;9.806;2023-01-25T05:03:27;14.90;;;7.97;;
19347;SDS011;9810;52.480;9.806;2023-01-25T05:05:54;19.87;;;8.27;;
19347;SDS011;9810;52.480;9.806;2023-01-25T05:08:22;14.20;;;7.57;;
19347;SDS011;9810;52.480;9.806;2023-01-25T05:10:50;17.77;;;8.10;;
19347;SDS011;9810;52.480;9.806;2023-01-25T05:13:19;18.55;;;9.65;;
19347;SDS011;9810;52.480;9.806;2023-01-25T05:15:47;14.87;;;7.47;;
19347;SDS011;9810;52.480;9.806;2023-01-25T05:18:16;18.17;;;8.30;;
19347;SDS011;9810;52.480;9.806;2023-01-25T05:20:44;14.07;;;8.10;;
19347;SDS011;9810;52.480;9.806;2023-01-25T05:23:11;14.10;;;7.67;;
19347;SDS011;9810;52.480;9.806;2023-01-25T05:25:38;15.30;;;8.10;;
19347;SDS011;9810;52.480;9.806;2023-01-25T05:28:22;17.80;;;8.23;;
19347;SDS011;9810;52.480;9.806;2023-01-25T05:30:50;13.40;;;7.00;;
19347;SDS011;9810;52.480;9.806;2023-01-25T05:33:19;11.00;;;5.50;;
19347;SDS011;9810;52.480;9.806;2023-01-25T05:35:46;15.77;;;6.20;;
19347;SDS011;9810;52.480;9.806;2023-01-25T05:38:14;9.43;;;4.67;;
19347;SDS011;9810;52.480;9.806;2023-01-25T05:40:41;7.50;;;4.00;;
19347;SDS011;9810;52.480;9.806;2023-01-25T05:43:08;7.77;;;4.53;;
19347;SDS011;9810;52.480;9.806;2023-01-25T05:45:36;10.63;;;5.57;;
19347;SDS011;9810;52.480;9.806;2023-01-25T05:48:04;14.20;;;5.83;;
19347;SDS011;9810;52.480;9.806;2023-01-25T05:50:33;12.50;;;5.87;;
19347;SDS011;9810;52.480;9.806;2023-01-25T05:53:01;11.93;;;5.60;;
19347;SDS011;9810;52.480;9.806;2023-01-25T05:55:28;7.70;;;4.67;;
19347;SDS011;9810;52.480;9.806;2023-01-25T05:57:55;13.07;;;6.53;;
19347;SDS011;9810;52.480;9.806;2023-01-25T06:00:23;9.10;;;6.37;;
19347;SDS011;9810;52.480;9.806;2023-01-25T06:02:50;10.23;;;5.73;;
19347;SDS011;9810;52.480;9.806;2023-01-25T06:05:20;7.27;;;4.73;;
19347;SDS011;9810;52.480;9.806;2023-01-25T06:07:50;8.20;;;4.37;;
19347;SDS011;9810;52.480;9.806;2023-01-25T06:10:17;12.83;;;6.13;;
19347;SDS011;9810;52.480;9.806;2023-01-25T06:12:44;11.87;;;5.57;;
19347;SDS011;9810;52.480;9.806;2023-01-25T06:15:12;10.47;;;5.33;;
19347;SDS011;9810;52.480;9.806;2023-01-25T06:17:39;10.17;;;5.73;;
19347;SDS011;9810;52.480;9.806;2023-01-25T06:20:07;10.03;;;5.37;;
19347;SDS011;9810;52.480;9.806;2023-01-25T06:22:35;9.27;;;5.73;;
19347;SDS011;9810;52.480;9.806;2023-01-25T06:25:05;8.60;;;4.93;;
19347;SDS011;9810;52.480;9.806;2023-01-25T06:27:33;10.60;;;5.60;;
19347;SDS011;9810;52.480;9.806;2023-01-25T06:30:01;13.40;;;5.40;;
19347;SDS011;9810;52.480;9.806;2023-01-25T06:32:30;12.10;;;6.33;;
19347;SDS011;9810;52.480;9.806;2023-01-25T06:34:58;9.83;;;5.87;;
19347;SDS011;9810;52.480;9.806;2023-01-25T06:37:25;9.47;;;5.00;;
19347;SDS011;9810;52.480;9.806;2023-01-25T06:39:52;8.93;;;4.70;;
19347;SDS011;9810;52.480;9.806;2023-01-25T06:42:21;11.70;;;5.77;;
19347;SDS011;9810;52.480;9.806;2023-01-25T06:44:49;11.17;;;5.33;;
19347;SDS011;9810;52.480;9.806;2023-01-25T06:47:17;10.83;;;5.13;;
19347;SDS011;9810;52.480;9.806;2023-01-25T06:49:44;8.37;;;5.20;;
19347;SDS011;9810;52.480;9.806;2023-01-25T06:52:11;9.10;;;5.03;;
19347;SDS011;9810;52.480;9.806;2023-01-25T06:54:39;14.70;;;6.00;;
19347;SDS011;9810;52.480;9.806;2023-01-25T06:57:06;17.20;;;8.27;;
19347;SDS011;9810;52.480;9.806;2023-01-25T06:59:36;11.63;;;6.20;;
19347;SDS011;9810;52.480;9.806;2023-01-25T07:02:03;13.47;;;6.93;;
19347;SDS011;9810;52.480;9.806;2023-01-25T07:04:30;9.57;;;5.80;;
19347;SDS011;9810;52.480;9.806;2023-01-25T07:06:58;12.43;;;6.60;;
19347;SDS011;9810;52.480;9.806;2023-01-25T07:09:25;12.17;;;6.33;;
19347;SDS011;9810;52.480;9.806;2023-01-25T07:11:53;14.20;;;7.50;;
19347;SDS011;9810;52.480;9.806;2023-01-25T07:14:20;13.70;;;7.40;;
19347;SDS011;9810;52.480;9.806;2023-01-25T07:16:51;14.57;;;6.33;;
19347;SDS011;9810;52.480;9.806;2023-01-25T07:19:19;12.73;;;6.37;;
19347;SDS011;9810;52.480;9.806;2023-01-25T07:21:47;16.07;;;6.90;;
19347;SDS011;9810;52.480;9.806;2023-01-25T07:24:15;11.30;;;6.73;;
19347;SDS011;9810;52.480;9.806;2023-01-25T07:26:44;13.83;;;7.00;;
19347;SDS011;9810;52.480;9.806;2023-01-25T07:29:13;17.30;;;7.67;;
19347;SDS011;9810;52.480;9.806;2023-01-25T07:31:41;16.90;;;6.70;;
19347;SDS011;9810;52.480;9.806;2023-01-25T07:34:11;18.77;;;8.07;;
19347;SDS011;9810;52.480;9.806;2023-01-25T07:36:39;15.43;;;8.27;;
19347;SDS011;9810;52.480;9.806;2023-01-25T07:39:09;18.13;;;7.90;;
19347;SDS011;9810;52.480;9.806;2023-01-25T07:41:36;21.90;;;10.43;;
19347;SDS011;9810;52.480;9.806;2023-01-25T07:44:04;16.90;;;8.60;;
19347;SDS011;9810;52.480;9.806;2023-01-25T07:46:35;15.53;;;7.77;;
19347;SDS011;9810;52.480;9.806;2023-01-25T07:49:02;16.20;;;8.63;;
19347;SDS011;9810;52.480;9.806;2023-01-25T07:51:31;14.83;;;8.20;;
19347;SDS011;9810;52.480;9.806;2023-01-25T07:53:59;21.47;;;8.60;;
19347;SDS011;9810;52.480;9.806;2023-01-25T07:56:28;18.27;;;8.90;;
19347;SDS011;9810;52.480;9.806;2023-01-25T07:58:57;15.23;;;7.60;;
19347;SDS011;9810;52.480;9.806;2023-01-25T08:01:27;20.70;;;9.53;;
19347;SDS011;9810;52.480;9.806;2023-01-25T08:03:55;20.03;;;8.47;;
19347;SDS011;9810;52.480;9.806;2023-01-25T08:06:23;21.27;;;10.13;;
19347;SDS011;9810;52.480;9.806;2023-01-25T08:08:57;21.37;;;8.73;;
19347;SDS011;9810;52.480;9.806;2023-01-25T08:11:25;19.80;;;9.47;;
19347;SDS011;9810;52.480;9.806;2023-01-25T08:13:55;21.70;;;9.77;;
19347;SDS011;9810;52.480;9.806;2023-01-25T08:16:23;21.73;;;9.60;;
19347;SDS011;9810;52.480;9.806;2023-01-25T08:18:51;24.87;;;10.57;;
19347;SDS011;9810;52.480;9.806;2023-01-25T08:21:20;22.37;;;10.70;;
19347;SDS011;9810;52.480;9.806;2023-01-25T08:23:49;21.97;;;10.27;;
19347;SDS011;9810;52.480;9.806;2023-01-25T08:26:18;21.93;;;9.90;;
19347;SDS011;9810;52.480;9.806;2023-01-25T08:28:46;26.67;;;11.27;;
19347;SDS011;9810;52.480;9.806;2023-01-25T08:31:14;23.03;;;10.00;;
19347;SDS011;9810;52.480;9.806;2023-01-25T08:33:42;24.17;;;10.73;;
19347;SDS011;9810;52.480;9.806;2023-01-25T08:36:11;22.03;;;11.07;;
19347;SDS011;9810;52.480;9.806;2023-01-25T08:38:39;21.73;;;10.67;;
19347;SDS011;9810;52.480;9.806;2023-01-25T08:41:07;23.27;;;10.60;;
19347;SDS011;9810;52.480;9.806;2023-01-25T08:43:38;18.77;;;9.33;;
19347;SDS011;9810;52.480;9.806;2023-01-25T08:46:06;22.43;;;9.67;;
19347;SDS011;9810;52.480;9.806;2023-01-25T08:48:33;23.53;;;11.20;;
19347;SDS011;9810;52.480;9.806;2023-01-25T08:51:01;23.73;;;11.20;;
19347;SDS011;9810;52.480;9.806;2023-01-25T08:53:29;21.93;;;10.40;;
19347;SDS011;9810;52.480;9.806;2023-01-25T08:56:03;23.63;;;11.67;;
19347;SDS011;9810;52.480;9.806;2023-01-25T08:58:31;22.03;;;9.33;;
19347;SDS011;9810;52.480;9.806;2023-01-25T09:01:04;23.87;;;10.50;;
19347;SDS011;9810;52.480;9.806;2023-01-25T09:03:33;26.43;;;11.57;;
19347;SDS011;9810;52.480;9.806;2023-01-25T09:06:01;21.93;;;9.50;;
19347;SDS011;9810;52.480;9.806;2023-01-25T09:08:29;20.20;;;10.40;;
19347;SDS011;9810;52.480;9.806;2023-01-25T09:10:59;31.13;;;12.20;;
19347;SDS011;9810;52.480;9.806;2023-01-25T09:13:27;21.40;;;11.13;;
19347;SDS011;9810;52.480;9.806;2023-01-25T09:15:58;25.83;;;10.50;;
19347;SDS011;9810;52.480;9.806;2023-01-25T09:18:28;22.03;;;10.83;;
19347;SDS011;9810;52.480;9.806;2023-01-25T09:20:57;16.47;;;6.80;;
19347;SDS011;9810;52.480;9.806;2023-01-25T09:23:24;20.00;;;9.77;;
19347;SDS011;9810;52.480;9.806;2023-01-25T09:25:55;22.50;;;10.07;;
19347;SDS011;9810;52.480;9.806;2023-01-25T09:28:23;25.87;;;11.40;;
19347;SDS011;9810;52.480;9.806;2023-01-25T09:30:54;21.07;;;9.23;;
19347;SDS011;9810;52.480;9.806;2023-01-25T09:33:23;23.88;;;12.02;;
19347;SDS011;9810;52.480;9.806;2023-01-25T09:35:53;21.00;;;9.80;;
19347;SDS011;9810;52.480;9.806;2023-01-25T09:38:21;18.93;;;9.00;;
19347;SDS011;9810;52.480;9.806;2023-01-25T09:40:57;16.67;;;8.40;;
19347;SDS011;9810;52.480;9.806;2023-01-25T09:43:37;18.97;;;8.53;;
19347;SDS011;9810;52.480;9.806;2023-01-25T09:46:16;17.63;;;9.30;;
19347;SDS011;9810;52.480;9.806;2023-01-25T09:48:54;24.10;;;9.97;;
19347;SDS011;9810;52.480;9.806;2023-01-25T09:51:32;20.83;;;10.43;;
19347;SDS011;9810;52.480;9.806;2023-01-25T09:54:13;24.50;;;10.77;;
19347;SDS011;9810;52.480;9.806;2023-01-25T09:56:43;21.53;;;8.47;;
19347;SDS011;9810;52.480;9.806;2023-01-25T09:59:16;20.77;;;10.10;;
19347;SDS011;9810;52.480;9.806;2023-01-25T10:01:48;19.53;;;10.43;;
19347;SDS011;9810;52.480;9.806;2023-01-25T10:04:20;22.60;;;11.03;;
19347;SDS011;9810;52.480;9.806;2023-01-25T10:06:54;24.17;;;10.73;;
19347;SDS011;9810;52.480;9.806;2023-01-25T10:09:30;23.53;;;9.73;;
19347;SDS011;9810;52.480;9.806;2023-01-25T10:12:07;22.33;;;9.10;;
19347;SDS011;9810;52.480;9.806;2023-01-25T10:14:45;21.03;;;9.73;;
19347;SDS011;9810;52.480;9.806;2023-01-25T10:17:13;19.27;;;8.87;;
19347;SDS011;9810;52.480;9.806;2023-01-25T10:19:53;21.33;;;8.90;;
19347;SDS011;9810;52.480;9.806;2023-01-25T10:22:40;24.20;;;9.77;;
19347;SDS011;9810;52.480;9.806;2023-01-25T10:25:23;19.77;;;9.20;;
19347;SDS011;9810;52.480;9.806;2023-01-25T10:28:14;16.40;;;8.10;;
19347;SDS011;9810;52.480;9.806;2023-01-25T10:30:52;23.83;;;8.80;;
19347;SDS011;9810;52.480;9.806;2023-01-25T10:33:28;17.87;;;6.97;;
19347;SDS011;9810;52.480;9.806;2023-01-25T10:35:59;20.30;;;10.30;;
19347;SDS011;9810;52.480;9.806;2023-01-25T10:38:31;19.33;;;8.37;;
19347;SDS011;9810;52.480;9.806;2023-01-25T10:41:03;25.70;;;12.48;;
19347;SDS011;9810;52.480;9.806;2023-01-25T10:43:36;24.37;;;10.67;;
19347;SDS011;9810;52.480;9.806;2023-01-25T10:46:10;19.07;;;9.50;;
19347;SDS011;9810;52.480;9.806;2023-01-25T10:48:47;28.50;;;11.57;;
19347;SDS011;9810;52.480;9.806;2023-01-25T10:51:30;21.27;;;10.60;;
19347;SDS011;9810;52.480;9.806;2023-01-25T10:54:02;25.67;;;9.33;;
19347;SDS011;9810;52.480;9.806;2023-01-25T10:56:31;20.73;;;9.07;;
19347;SDS011;9810;52.480;9.806;2023-01-25T10:59:05;16.40;;;8.77;;
19347;SDS011;9810;52.480;9.806;2023-01-25T11:01:39;22.50;;;9.57;;
19347;SDS011;9810;52.480;9.806;2023-01-25T11:04:20;20.57;;;9.80;;
19347;SDS011;9810;52.480;9.806;2023-01-25T11:06:59;17.77;;;9.00;;
19347;SDS011;9810;52.480;9.806;2023-01-25T11:09:44;23.73;;;11.13;;
19347;SDS011;9810;52.480;9.806;2023-01-25T11:12:14;20.83;;;9.73;;
19347;SDS011;9810;52.480;9.806;2023-01-25T11:14:43;25.33;;;10.77;;
19347;SDS011;9810;52.480;9.806;2023-01-25T11:17:21;23.03;;;11.60;;
19347;SDS011;9810;52.480;9.806;2023-01-25T11:20:09;27.13;;;13.20;;
19347;SDS011;9810;52.480;9.806;2023-01-25T11:22:49;26.13;;;11.73;;
19347;SDS011;9810;52.480;9.806;2023-01-25T11:25:24;20.67;;;9.33;;
19347;SDS011;9810;52.480;9.806;2023-01-25T11:31:18;21.83;;;9.70;;
19347;SDS011;9810;52.480;9.806;2023-01-25T11:33:49;26.07;;;9.50;;
19347;SDS011;9810;52.480;9.806;2023-01-25T11:36:36;20.30;;;9.60;;
19347;SDS011;9810;52.480;9.806;2023-01-25T11:39:20;22.40;;;11.17;;
19347;SDS011;9810;52.480;9.806;2023-01-25T11:42:11;22.13;;;10.87;;
19347;SDS011;9810;52.480;9.806;2023-01-25T11:45:19;28.90;;;12.20;;
19347;SDS011;9810;52.480;9.806;2023-01-25T11:48:21;26.30;;;11.73;;
19347;SDS011;9810;52.480;9.806;2023-01-25T11:50:59;22.00;;;9.80;;
19347;SDS011;9810;52.480;9.806;2023-01-25T11:53:39;24.93;;;10.10;;
19347;SDS011;9810;52.480;9.806;2023-01-25T11:56:17;20.13;;;8.70;;
19347;SDS011;9810;52.480;9.806;2023-01-25T11:59:02;19.33;;;10.37;;
19347;SDS011;9810;52.480;9.806;2023-01-25T12:01:44;25.90;;;11.00;;
19347;SDS011;9810;52.480;9.806;2023-01-25T12:04:38;24.80;;;11.30;;
19347;SDS011;9810;52.480;9.806;2023-01-25T12:07:18;24.30;;;11.33;;
19347;SDS011;9810;52.480;9.806;2023-01-25T12:09:56;23.88;;;9.88;;
19347;SDS011;9810;52.480;9.806;2023-01-25T12:12:35;24.80;;;10.47;;
19347;SDS011;9810;52.480;9.806;2023-01-25T12:15:22;20.73;;;10.00;;
19347;SDS011;9810;52.480;9.806;2023-01-25T12:18:07;24.33;;;10.47;;
19347;SDS011;9810;52.480;9.806;2023-01-25T12:20:59;26.67;;;11.07;;
19347;SDS011;9810;52.480;9.806;2023-01-25T12:23:32;26.40;;;12.17;;
19347;SDS011;9810;52.480;9.806;2023-01-25T12:26:09;21.83;;;9.17;;
19347;SDS011;9810;52.480;9.806;2023-01-25T12:28:45;18.83;;;9.37;;
19347;SDS011;9810;52.480;9.806;2023-01-25T12:31:18;22.17;;;10.13;;
19347;SDS011;9810;52.480;9.806;2023-01-25T12:33:51;22.17;;;9.83;;
19347;SDS011;9810;52.480;9.806;2023-01-25T12:36:24;15.50;;;8.63;;
19347;SDS011;9810;52.480;9.806;2023-01-25T12:38:56;21.58;;;10.57;;
19347;SDS011;9810;52.480;9.806;2023-01-25T12:41:32;19.27;;;10.13;;
19347;SDS011;9810;52.480;9.806;2023-01-25T12:44:10;20.90;;;9.73;;
19347;SDS011;9810;52.480;9.806;2023-01-25T12:46:48;19.47;;;10.23;;
19347;SDS011;9810;52.480;9.806;2023-01-25T12:49:22;21.50;;;10.53;;
19347;SDS011;9810;52.480;9.806;2023-01-25T12:51:58;15.87;;;8.70;;
19347;SDS011;9810;52.480;9.806;2023-01-25T12:54:30;21.93;;;9.03;;
19347;SDS011;9810;52.480;9.806;2023-01-25T12:57:05;18.73;;;8.33;;
19347;SDS011;9810;52.480;9.806;2023-01-25T12:59:39;21.63;;;9.73;;
19347;SDS011;9810;52.480;9.806;2023-01-25T13:02:24;20.30;;;9.97;;
19347;SDS011;9810;52.480;9.806;2023-01-25T13:05:15;27.37;;;11.20;;
19347;SDS011;9810;52.480;9.806;2023-01-25T13:07:57;17.77;;;10.73;;
19347;SDS011;9810;52.480;9.806;2023-01-25T13:10:30;25.43;;;12.13;;
19347;SDS011;9810;52.480;9.806;2023-01-25T13:13:01;21.93;;;11.17;;
19347;SDS011;9810;52.480;9.806;2023-01-25T13:15:45;20.53;;;10.03;;
19347;SDS011;9810;52.480;9.806;2023-01-25T13:21:10;26.10;;;11.27;;
19347;SDS011;9810;52.480;9.806;2023-01-25T13:24:06;21.90;;;11.03;;
19347;SDS011;9810;52.480;9.806;2023-01-25T13:26:47;20.60;;;10.17;;
19347;SDS011;9810;52.480;9.806;2023-01-25T13:32:13;24.27;;;10.80;;
19347;SDS011;9810;52.480;9.806;2023-01-25T13:35:23;26.23;;;10.43;;
19347;SDS011;9810;52.480;9.806;2023-01-25T13:41:02;25.33;;;10.40;;
19347;SDS011;9810;52.480;9.806;2023-01-25T13:43:34;28.73;;;12.70;;
19347;SDS011;9810;52.480;9.806;2023-01-25T13:46:02;23.10;;;11.63;;
19347;SDS011;9810;52.480;9.806;2023-01-25T13:48:31;26.03;;;11.63;;
19347;SDS011;9810;52.480;9.806;2023-01-25T13:51:07;24.00;;;11.90;;
19347;SDS011;9810;52.480;9.806;2023-01-25T13:53:38;23.50;;;11.07;;
19347;SDS011;9810;52.480;9.806;2023-01-25T13:56:21;28.30;;;11.23;;
19347;SDS011;9810;52.480;9.806;2023-01-25T13:58:52;23.60;;;11.50;;
19347;SDS011;9810;52.480;9.806;2023-01-25T14:04:12;25.00;;;10.00;;
19347;SDS011;9810;52.480;9.806;2023-01-25T14:06:40;19.83;;;8.70;;
19347;SDS011;9810;52.480;9.806;2023-01-25T14:09:10;18.93;;;9.77;;
19347;SDS011;9810;52.480;9.806;2023-01-25T14:11:42;18.90;;;8.33;;
19347;SDS011;9810;52.480;9.806;2023-01-25T14:14:17;20.17;;;8.70;;
19347;SDS011;9810;52.480;9.806;2023-01-25T14:17:03;19.40;;;9.17;;
19347;SDS011;9810;52.480;9.806;2023-01-25T14:19:42;21.00;;;8.70;;
19347;SDS011;9810;52.480;9.806;2023-01-25T14:22:18;18.53;;;8.47;;
19347;SDS011;9810;52.480;9.806;2023-01-25T14:27:41;20.10;;;10.13;;
19347;SDS011;9810;52.480;9.806;2023-01-25T14:30:17;21.37;;;9.53;;
19347;SDS011;9810;52.480;9.806;2023-01-25T14:32:47;24.43;;;10.03;;
19347;SDS011;9810;52.480;9.806;2023-01-25T14:35:26;24.23;;;10.80;;
19347;SDS011;9810;52.480;9.806;2023-01-25T14:38:03;22.37;;;10.67;;
19347;SDS011;9810;52.480;9.806;2023-01-25T14:40:49;23.47;;;10.33;;
19347;SDS011;9810;52.480;9.806;2023-01-25T14:43:20;22.57;;;10.43;;
19347;SDS011;9810;52.480;9.806;2023-01-25T14:45:48;23.10;;;11.47;;
19347;SDS011;9810;52.480;9.806;2023-01-25T14:48:35;23.37;;;11.33;;
19347;SDS011;9810;52.480;9.806;2023-01-25T14:51:08;25.57;;;11.50;;
19347;SDS011;9810;52.480;9.806;2023-01-25T14:53:42;19.50;;;9.90;;
19347;SDS011;9810;52.480;9.806;2023-01-25T14:56:23;21.87;;;10.00;;
19347;SDS011;9810;52.480;9.806;2023-01-25T14:58:55;18.23;;;9.30;;
19347;SDS011;9810;52.480;9.806;2023-01-25T15:01:25;20.13;;;10.47;;
19347;SDS011;9810;52.480;9.806;2023-01-25T15:03:56;22.27;;;10.27;;
19347;SDS011;9810;52.480;9.806;2023-01-25T15:06:23;21.63;;;11.50;;
19347;SDS011;9810;52.480;9.806;2023-01-25T15:08:52;22.67;;;10.80;;
19347;SDS011;9810;52.480;9.806;2023-01-25T15:11:24;22.23;;;11.17;;
19347;SDS011;9810;52.480;9.806;2023-01-25T15:14:03;21.13;;;9.53;;
19347;SDS011;9810;52.480;9.806;2023-01-25T15:16:41;22.97;;;10.90;;
19347;SDS011;9810;52.480;9.806;2023-01-25T15:19:19;20.10;;;9.67;;
19347;SDS011;9810;52.480;9.806;2023-01-25T15:21:48;22.63;;;11.27;;
19347;SDS011;9810;52.480;9.806;2023-01-25T15:24:17;21.73;;;10.90;;
19347;SDS011;9810;52.480;9.806;2023-01-25T15:26:47;18.87;;;9.83;;
19347;SDS011;9810;52.480;9.806;2023-01-25T15:29:17;23.13;;;9.33;;
19347;SDS011;9810;52.480;9.806;2023-01-25T15:31:46;20.87;;;9.77;;
19347;SDS011;9810;52.480;9.806;2023-01-25T15:34:15;20.13;;;9.97;;
19347;SDS011;9810;52.480;9.806;2023-01-25T15:36:44;20.53;;;9.07;;